createdAt,value
2022-12-01T00:01:21.187Z,0.99
2022-12-01T00:03:48.414Z,1.04
2022-12-01T00:06:18.864Z,1.02
2022-12-01T00:09:05.857Z,1.01
2022-12-01T00:11:34.002Z,0.99
2022-12-01T00:14:01.487Z,0.98
2022-12-01T00:16:28.657Z,0.94
2022-12-01T00:18:55.706Z,0.99
2022-12-01T00:21:24.216Z,0.99
2022-12-01T00:23:53.596Z,0.99
2022-12-01T00:26:21.641Z,0.96
2022-12-01T00:28:52.884Z,0.96
2022-12-01T00:31:20.297Z,0.94
2022-12-01T00:33:47.126Z,0.88
2022-12-01T00:36:14.198Z,0.91
2022-12-01T00:38:40.852Z,0.89
2022-12-01T00:41:07.544Z,0.89
2022-12-01T00:43:34.378Z,0.85
2022-12-01T00:46:01.197Z,0.85
2022-12-01T00:48:27.947Z,0.85
2022-12-01T00:50:55.726Z,0.80
2022-12-01T00:53:23.554Z,0.84
2022-12-01T00:55:50.448Z,0.80
2022-12-01T00:58:17.166Z,0.80
2022-12-01T01:00:43.947Z,0.77
2022-12-01T01:03:11.328Z,0.73
2022-12-01T01:05:40.281Z,0.70
2022-12-01T01:08:08.851Z,0.65
2022-12-01T01:10:43.439Z,0.62
2022-12-01T01:13:10.583Z,0.63
2022-12-01T01:15:37.936Z,0.57
2022-12-01T01:18:05.491Z,0.48
2022-12-01T01:20:32.680Z,0.46
2022-12-01T01:22:59.238Z,0.42
2022-12-01T01:25:25.957Z,0.41
2022-12-01T01:27:52.724Z,0.37
2022-12-01T01:30:19.786Z,0.32
2022-12-01T01:32:46.488Z,0.31
2022-12-01T01:35:13.279Z,0.28
2022-12-01T01:37:39.963Z,0.34
2022-12-01T01:40:07.247Z,0.32
2022-12-01T01:42:33.975Z,0.27
2022-12-01T01:45:00.752Z,0.28
2022-12-01T01:47:34.923Z,0.24
2022-12-01T01:50:12.679Z,0.26
2022-12-01T01:52:50.356Z,0.26
2022-12-01T01:55:17.935Z,0.25
2022-12-01T01:57:45.547Z,0.29
2022-12-01T02:00:15.748Z,0.31
2022-12-01T02:02:45.488Z,0.28
2022-12-01T02:05:17.814Z,0.23
2022-12-01T02:07:45.607Z,0.23
2022-12-01T02:10:14.556Z,0.24
2022-12-01T02:12:53.243Z,0.25
2022-12-01T02:15:44.373Z,0.25
2022-12-01T02:18:22.304Z,0.17
2022-12-01T02:21:24.737Z,0.19
2022-12-01T02:24:12.561Z,0.20
2022-12-01T02:26:49.092Z,0.15
2022-12-01T02:29:43.243Z,0.23
2022-12-01T02:32:32.731Z,0.25
2022-12-01T02:35:22.765Z,0.24
2022-12-01T02:38:03.503Z,0.27
2022-12-01T02:40:39.538Z,0.27
2022-12-01T02:43:12.353Z,0.26
2022-12-01T02:45:59.302Z,0.32
2022-12-01T02:48:33.820Z,0.31
2022-12-01T02:51:09.711Z,0.27
2022-12-01T02:53:36.724Z,0.29
2022-12-01T02:56:07.396Z,0.28
2022-12-01T02:58:34.107Z,0.32
2022-12-01T03:01:18.508Z,0.30
2022-12-01T03:04:09.085Z,0.28
2022-12-01T03:07:03.482Z,0.28
2022-12-01T03:09:49.503Z,0.24
2022-12-01T03:12:23.726Z,0.27
2022-12-01T03:15:03.473Z,0.28
2022-12-01T03:17:51.819Z,0.33
2022-12-01T03:20:56.547Z,0.32
2022-12-01T03:23:28.715Z,0.32
2022-12-01T03:25:57.956Z,0.32
2022-12-01T03:28:30.939Z,0.33
2022-12-01T03:31:03.714Z,0.29
2022-12-01T03:33:37.775Z,0.31
2022-12-01T03:36:22.843Z,0.33
2022-12-01T03:38:55.696Z,0.29
2022-12-01T03:41:26.216Z,0.36
2022-12-01T03:43:59.693Z,0.39
2022-12-01T03:46:47.450Z,0.38
2022-12-01T03:49:17.169Z,0.37
2022-12-01T03:52:01.690Z,0.37
2022-12-01T03:54:55.329Z,0.35
2022-12-01T03:57:31.576Z,0.32
2022-12-01T03:59:58.465Z,0.30
2022-12-01T04:02:27.951Z,0.34
2022-12-01T04:04:54.779Z,0.35
2022-12-01T04:07:23.489Z,0.34
2022-12-01T04:09:50.645Z,0.36
2022-12-01T04:12:29.637Z,0.36
2022-12-01T04:14:57.908Z,0.36
2022-12-01T04:17:25.649Z,0.36
2022-12-01T04:19:52.995Z,0.37
2022-12-01T04:22:19.550Z,0.36
2022-12-01T04:24:46.353Z,0.39
2022-12-01T04:27:13.444Z,0.39
2022-12-01T04:29:40.199Z,0.40
2022-12-01T04:32:07.241Z,0.38
2022-12-01T04:34:34.022Z,0.40
2022-12-01T04:37:00.943Z,0.37
2022-12-01T04:39:27.628Z,0.36
2022-12-01T04:41:54.316Z,0.39
2022-12-01T04:44:22.180Z,0.29
2022-12-01T04:46:50.763Z,0.36
2022-12-01T04:49:17.560Z,0.40
2022-12-01T04:51:44.320Z,0.41
2022-12-01T04:54:11.095Z,0.37
2022-12-01T04:56:38.127Z,0.39
2022-12-01T04:59:04.815Z,0.42
2022-12-01T05:01:31.953Z,0.25
2022-12-01T05:03:58.638Z,0.44
2022-12-01T05:06:27.848Z,0.46
2022-12-01T05:08:57.077Z,0.47
2022-12-01T05:11:24.455Z,0.47
2022-12-01T05:13:51.299Z,0.46
2022-12-01T05:16:19.688Z,0.46
2022-12-01T05:18:51.531Z,0.44
2022-12-01T05:21:18.652Z,0.44
2022-12-01T05:23:45.698Z,0.41
2022-12-01T05:26:12.456Z,0.44
2022-12-01T05:28:40.921Z,0.44
2022-12-01T05:31:07.661Z,0.45
2022-12-01T05:33:34.424Z,0.44
2022-12-01T05:36:01.125Z,0.50
2022-12-01T05:38:27.818Z,0.50
2022-12-01T05:40:56.362Z,0.50
2022-12-01T05:43:28.983Z,0.59
2022-12-01T05:45:58.013Z,0.56
2022-12-01T05:48:25.521Z,0.43
2022-12-01T05:50:52.405Z,0.60
2022-12-01T05:53:19.552Z,0.55
2022-12-01T05:55:46.195Z,0.61
2022-12-01T05:58:13.102Z,0.56
2022-12-01T06:00:45.300Z,0.55
2022-12-01T06:03:13.566Z,0.46
2022-12-01T06:05:40.629Z,0.46
2022-12-01T06:08:08.457Z,0.46
2022-12-01T06:10:35.936Z,0.39
2022-12-01T06:13:02.759Z,0.39
2022-12-01T06:15:29.768Z,0.41
2022-12-01T06:17:59.814Z,0.37
2022-12-01T06:20:26.877Z,0.42
2022-12-01T06:22:53.889Z,0.34
2022-12-01T06:25:20.770Z,0.33
2022-12-01T06:27:47.541Z,0.35
2022-12-01T06:30:14.563Z,0.40
2022-12-01T06:32:41.301Z,0.44
2022-12-01T06:35:08.374Z,0.47
2022-12-01T06:37:35.439Z,0.41
2022-12-01T06:40:02.146Z,0.43
2022-12-01T06:42:33.601Z,0.41
2022-12-01T06:45:00.305Z,0.40
2022-12-01T06:47:27.403Z,0.39
2022-12-01T06:49:54.199Z,0.44
2022-12-01T06:52:20.953Z,0.39
2022-12-01T06:54:47.659Z,0.42
2022-12-01T06:57:15.484Z,0.41
2022-12-01T06:59:42.522Z,0.37
2022-12-01T07:02:10.964Z,0.35
2022-12-01T07:04:37.749Z,0.30
2022-12-01T07:07:05.742Z,0.33
2022-12-01T07:09:32.419Z,0.29
2022-12-01T07:11:59.216Z,0.34
2022-12-01T07:14:27.218Z,0.33
2022-12-01T07:16:54.242Z,0.39
2022-12-01T07:19:21.048Z,0.39
2022-12-01T07:21:47.869Z,0.40
2022-12-01T07:24:14.802Z,0.43
2022-12-01T07:26:44.335Z,0.46
2022-12-01T07:29:12.760Z,0.49
2022-12-01T07:31:39.983Z,0.50
2022-12-01T07:34:06.940Z,0.50
2022-12-01T07:36:33.632Z,0.50
2022-12-01T07:39:04.651Z,0.49
2022-12-01T07:41:31.428Z,0.49
2022-12-01T07:43:58.113Z,0.50
2022-12-01T07:46:26.884Z,0.54
2022-12-01T07:48:55.290Z,0.55
2022-12-01T07:51:23.816Z,0.60
2022-12-01T07:53:52.041Z,0.53
2022-12-01T07:56:20.030Z,0.58
2022-12-01T07:58:47.057Z,0.57
2022-12-01T08:01:20.454Z,0.62
2022-12-01T08:03:54.984Z,0.70
2022-12-01T08:06:22.961Z,0.76
2022-12-01T08:08:50.064Z,0.75
2022-12-01T08:11:29.630Z,0.72
2022-12-01T08:13:57.005Z,0.74
2022-12-01T08:16:25.048Z,0.72
2022-12-01T08:18:52.460Z,0.71
2022-12-01T08:21:20.956Z,0.73
2022-12-01T08:23:48.723Z,0.70
2022-12-01T08:26:18.820Z,0.73
2022-12-01T08:28:46.732Z,0.78
2022-12-01T08:31:19.689Z,0.82
2022-12-01T08:33:47.748Z,0.81
2022-12-01T08:36:15.651Z,0.85
2022-12-01T08:38:46.807Z,0.89
2022-12-01T08:41:14.419Z,0.88
2022-12-01T08:44:00.162Z,0.99
2022-12-01T08:46:31.309Z,0.98
2022-12-01T08:48:58.414Z,0.99
2022-12-01T08:51:26.278Z,0.99
2022-12-01T08:53:54.436Z,1.02
2022-12-01T08:56:33.398Z,1.02
2022-12-01T08:59:00.849Z,1.05
2022-12-01T09:01:28.610Z,1.05
2022-12-01T09:04:06.535Z,1.06
2022-12-01T09:06:38.501Z,1.06
2022-12-01T09:09:05.664Z,1.13
2022-12-01T09:11:32.316Z,1.15
2022-12-01T09:13:59.728Z,1.17
2022-12-01T09:16:26.477Z,1.17
2022-12-01T09:18:53.202Z,1.15
2022-12-01T09:21:28.436Z,1.19
2022-12-01T09:23:55.205Z,1.19
2022-12-01T09:26:22.838Z,1.16
2022-12-01T09:28:53.428Z,1.18
2022-12-01T09:31:20.878Z,1.23
2022-12-01T09:33:47.649Z,1.26
2022-12-01T09:36:15.051Z,1.24
2022-12-01T09:38:42.547Z,1.25
2022-12-01T09:41:19.424Z,1.27
2022-12-01T09:43:54.675Z,1.23
2022-12-01T09:46:33.130Z,1.27
2022-12-01T09:49:03.383Z,1.25
2022-12-01T09:51:31.141Z,1.29
2022-12-01T09:54:00.139Z,1.24
2022-12-01T09:56:29.934Z,1.29
2022-12-01T09:59:08.034Z,1.35
2022-12-01T10:01:38.348Z,1.33
2022-12-01T10:04:20.975Z,1.34
2022-12-01T10:06:55.687Z,1.31
2022-12-01T10:09:52.144Z,1.30
2022-12-01T10:12:27.794Z,1.40
2022-12-01T10:15:06.270Z,1.37
2022-12-01T10:18:08.492Z,1.42
2022-12-01T10:20:41.121Z,1.47
2022-12-01T10:23:32.136Z,1.42
2022-12-01T10:26:09.487Z,1.39
2022-12-01T10:29:03.043Z,1.49
2022-12-01T10:32:00.234Z,1.46
2022-12-01T10:34:28.551Z,1.44
2022-12-01T10:36:57.346Z,1.45
2022-12-01T10:39:46.619Z,1.49
2022-12-01T10:42:36.682Z,1.45
2022-12-01T10:45:13.830Z,1.50
2022-12-01T10:48:15.111Z,1.52
2022-12-01T10:50:46.408Z,1.54
2022-12-01T10:53:26.964Z,1.58
2022-12-01T10:56:16.511Z,1.61
2022-12-01T10:58:48.716Z,1.63
2022-12-01T11:01:24.786Z,1.61
2022-12-01T11:04:08.074Z,1.57
2022-12-01T11:06:35.745Z,1.61
2022-12-01T11:09:07.113Z,1.49
2022-12-01T11:11:37.811Z,1.52
2022-12-01T11:14:28.061Z,1.66
2022-12-01T11:16:54.874Z,1.69
2022-12-01T11:19:28.319Z,1.70
2022-12-01T11:21:58.354Z,1.55
2022-12-01T11:24:28.089Z,1.51
2022-12-01T11:26:58.533Z,1.49
2022-12-01T11:29:38.308Z,1.49
2022-12-01T11:32:22.843Z,1.44
2022-12-01T11:35:12.780Z,1.42
2022-12-01T11:37:54.872Z,1.40
2022-12-01T11:40:33.747Z,1.41
2022-12-01T11:43:05.058Z,1.47
2022-12-01T11:45:40.347Z,1.46
2022-12-01T11:48:13.401Z,1.42
2022-12-01T11:50:43.998Z,1.49
2022-12-01T11:53:25.769Z,1.42
2022-12-01T11:55:52.459Z,1.36
2022-12-01T11:58:19.279Z,1.36
2022-12-01T12:00:52.036Z,1.33
2022-12-01T12:03:44.963Z,1.18
2022-12-01T12:06:42.449Z,1.40
2022-12-01T12:09:12.038Z,1.50
2022-12-01T12:11:52.297Z,1.53
2022-12-01T12:14:41.039Z,1.57
2022-12-01T12:17:51.003Z,1.51
2022-12-01T12:20:37.241Z,1.52
2022-12-01T12:24:02.584Z,1.55
2022-12-01T12:26:35.183Z,1.61
2022-12-01T12:29:21.802Z,1.56
2022-12-01T12:32:12.962Z,1.60
2022-12-01T12:35:04.496Z,1.59
2022-12-01T12:37:44.410Z,1.58
2022-12-01T12:41:02.110Z,1.57
2022-12-01T12:43:36.755Z,1.62
2022-12-01T12:46:44.990Z,1.72
2022-12-01T12:49:23.258Z,1.73
2022-12-01T12:52:07.827Z,1.68
2022-12-01T12:54:52.720Z,1.72
2022-12-01T12:57:22.075Z,1.77
2022-12-01T12:59:55.933Z,1.75
2022-12-01T13:02:41.233Z,1.73
2022-12-01T13:05:20.886Z,1.75
2022-12-01T13:07:51.444Z,1.76
2022-12-01T13:10:48.803Z,1.80
2022-12-01T13:13:33.589Z,1.80
2022-12-01T13:16:02.922Z,1.81
2022-12-01T13:19:03.302Z,1.83
2022-12-01T13:21:36.620Z,1.89
2022-12-01T13:24:04.691Z,1.87
2022-12-01T13:26:34.855Z,1.84
2022-12-01T13:29:06.057Z,1.87
2022-12-01T13:31:52.399Z,1.89
2022-12-01T13:34:37.399Z,1.91
2022-12-01T13:37:04.406Z,1.91
2022-12-01T13:39:36.229Z,1.90
2022-12-01T13:42:08.493Z,1.89
2022-12-01T13:44:40.388Z,1.90
2022-12-01T13:47:10.099Z,1.84
2022-12-01T13:49:49.222Z,1.88
2022-12-01T13:52:26.765Z,1.84
2022-12-01T13:55:08.443Z,1.85
2022-12-01T13:57:56.729Z,1.89
2022-12-01T14:00:35.000Z,1.85
2022-12-01T14:03:16.894Z,1.88
2022-12-01T14:05:53.172Z,1.90
2022-12-01T14:08:31.542Z,1.87
2022-12-01T14:11:01.724Z,1.87
2022-12-01T14:13:31.328Z,1.84
2022-12-01T14:16:03.603Z,1.80
2022-12-01T14:18:40.534Z,1.80
2022-12-01T14:21:10.573Z,1.81
2022-12-01T14:24:02.232Z,1.80
2022-12-01T14:26:30.812Z,1.83
2022-12-01T14:29:00.393Z,1.86
2022-12-01T14:31:33.293Z,1.84
2022-12-01T14:34:19.217Z,1.84
2022-12-01T14:36:53.489Z,1.83
2022-12-01T14:39:42.921Z,1.88
2022-12-01T14:42:51.009Z,1.85
2022-12-01T14:45:25.166Z,1.75
2022-12-01T14:48:05.284Z,1.76
2022-12-01T14:50:39.850Z,1.82
2022-12-01T14:53:22.712Z,1.79
2022-12-01T14:55:54.009Z,1.78
2022-12-01T14:58:24.857Z,1.77
2022-12-01T15:01:03.513Z,1.80
2022-12-01T15:03:38.592Z,1.78
2022-12-01T15:06:06.203Z,1.80
2022-12-01T15:08:53.405Z,1.76
2022-12-01T15:11:30.213Z,1.72
2022-12-01T15:13:58.044Z,1.68
2022-12-01T15:16:28.508Z,1.59
2022-12-01T15:18:55.429Z,1.74
2022-12-01T15:21:32.003Z,1.76
2022-12-01T15:24:00.395Z,1.76
2022-12-01T15:26:31.588Z,1.76
2022-12-01T15:29:25.592Z,1.75
2022-12-01T15:32:15.560Z,1.73
2022-12-01T15:34:44.553Z,1.66
2022-12-01T15:37:18.464Z,1.72
2022-12-01T15:39:49.081Z,1.72
2022-12-01T15:42:29.565Z,1.77
2022-12-01T15:45:02.050Z,1.78
2022-12-01T15:47:41.190Z,1.74
2022-12-01T15:50:33.986Z,1.76
2022-12-01T15:53:19.909Z,1.73
2022-12-01T15:55:54.097Z,1.75
2022-12-01T15:58:27.956Z,1.72
2022-12-01T16:01:08.749Z,1.73
2022-12-01T16:03:50.119Z,1.71
2022-12-01T16:06:18.360Z,1.64
2022-12-01T16:09:02.580Z,1.68
2022-12-01T16:11:29.701Z,1.67
2022-12-01T16:14:00.904Z,1.67
2022-12-01T16:16:40.186Z,1.70
2022-12-01T16:19:09.899Z,1.68
2022-12-01T16:21:50.816Z,1.66
2022-12-01T16:24:36.665Z,1.67
2022-12-01T16:27:08.744Z,1.61
2022-12-01T16:29:55.980Z,1.72
2022-12-01T16:32:41.511Z,1.75
2022-12-01T16:35:22.837Z,1.78
2022-12-01T16:37:49.568Z,1.77
2022-12-01T16:40:17.021Z,1.75
2022-12-01T16:42:43.966Z,1.73
2022-12-01T16:45:15.656Z,1.75
2022-12-01T16:47:43.043Z,1.78
2022-12-01T16:50:21.861Z,1.78
2022-12-01T16:52:48.663Z,1.75
2022-12-01T16:55:27.342Z,1.74
2022-12-01T16:57:55.446Z,1.71
2022-12-01T17:00:23.019Z,1.66
2022-12-01T17:02:50.051Z,1.62
2022-12-01T17:05:17.024Z,1.69
2022-12-01T17:07:43.789Z,1.68
2022-12-01T17:10:11.183Z,1.69
2022-12-01T17:12:37.920Z,1.65
2022-12-01T17:15:05.516Z,1.68
2022-12-01T17:17:32.257Z,1.72
2022-12-01T17:19:59.105Z,1.69
2022-12-01T17:22:26.350Z,1.71
2022-12-01T17:24:55.506Z,1.76
2022-12-01T17:27:23.661Z,1.73
2022-12-01T17:29:50.855Z,1.74
2022-12-01T17:32:17.419Z,1.75
2022-12-01T17:34:44.116Z,1.76
2022-12-01T17:37:13.797Z,1.75
2022-12-01T17:39:44.619Z,1.74
2022-12-01T17:42:11.624Z,1.70
2022-12-01T17:44:38.349Z,1.65
2022-12-01T17:47:05.241Z,1.71
2022-12-01T17:49:31.945Z,1.71
2022-12-01T17:51:58.685Z,1.72
2022-12-01T17:54:25.427Z,1.73
2022-12-01T17:56:52.149Z,1.71
2022-12-01T17:59:18.854Z,1.75
2022-12-01T18:01:45.810Z,1.78
2022-12-01T18:04:12.660Z,1.77
2022-12-01T18:06:39.596Z,1.80
2022-12-01T18:09:06.747Z,1.78
2022-12-01T18:11:33.378Z,1.81
2022-12-01T18:14:00.641Z,1.81
2022-12-01T18:16:30.571Z,1.78
2022-12-01T18:18:59.262Z,1.81
2022-12-01T18:21:26.865Z,1.83
2022-12-01T18:23:56.928Z,1.80
2022-12-01T18:26:25.101Z,1.82
2022-12-01T18:29:04.976Z,1.79
2022-12-01T18:31:32.342Z,1.82
2022-12-01T18:34:04.001Z,1.80
2022-12-01T18:36:33.127Z,1.84
2022-12-01T18:39:01.033Z,1.83
2022-12-01T18:41:28.026Z,1.82
2022-12-01T18:43:54.778Z,1.82
2022-12-01T18:46:22.266Z,1.83
2022-12-01T18:48:51.346Z,1.80
2022-12-01T18:51:19.473Z,1.77
2022-12-01T18:53:46.928Z,1.80
2022-12-01T18:56:15.265Z,1.74
2022-12-01T18:58:42.739Z,1.78
2022-12-01T19:01:30.536Z,1.78
2022-12-01T19:03:59.661Z,1.75
2022-12-01T19:06:27.543Z,1.81
2022-12-01T19:08:55.160Z,1.82
2022-12-01T19:11:22.213Z,1.84
2022-12-01T19:13:48.961Z,1.80
2022-12-01T19:16:18.701Z,1.81
2022-12-01T19:18:46.055Z,1.90
2022-12-01T19:21:15.532Z,1.91
2022-12-01T19:23:43.621Z,1.87
2022-12-01T19:26:12.542Z,1.84
2022-12-01T19:28:40.407Z,1.81
2022-12-01T19:31:09.552Z,1.81
2022-12-01T19:33:36.429Z,1.82
2022-12-01T19:36:16.641Z,1.77
2022-12-01T19:38:44.679Z,1.75
2022-12-01T19:41:13.779Z,1.75
2022-12-01T19:43:42.502Z,1.74
2022-12-01T19:46:18.427Z,1.72
2022-12-01T19:48:46.512Z,1.71
2022-12-01T19:51:19.367Z,1.71
2022-12-01T19:53:46.639Z,1.71
2022-12-01T19:56:13.747Z,1.75
2022-12-01T19:58:40.520Z,1.74
2022-12-01T20:01:10.423Z,1.73
2022-12-01T20:03:38.378Z,1.76
2022-12-01T20:06:11.932Z,1.81
2022-12-01T20:08:39.533Z,1.82
2022-12-01T20:11:07.398Z,1.80
2022-12-01T20:13:40.122Z,1.78
2022-12-01T20:16:16.378Z,1.79
2022-12-01T20:18:43.535Z,1.77
2022-12-01T20:21:24.785Z,1.79
2022-12-01T20:23:57.708Z,1.80
2022-12-01T20:26:30.386Z,1.80
2022-12-01T20:29:04.814Z,1.81
2022-12-01T20:31:33.572Z,1.78
2022-12-01T20:34:02.844Z,1.76
2022-12-01T20:36:32.129Z,1.78
2022-12-01T20:38:58.933Z,1.78
2022-12-01T20:41:25.723Z,1.81
2022-12-01T20:43:52.485Z,1.81
2022-12-01T20:46:19.289Z,1.79
2022-12-01T20:48:46.037Z,1.83
2022-12-01T20:51:14.413Z,1.82
2022-12-01T20:53:54.477Z,1.81
2022-12-01T20:56:28.224Z,1.81
2022-12-01T20:58:55.176Z,1.79
2022-12-01T21:01:22.653Z,1.82
2022-12-01T21:03:51.022Z,1.82
2022-12-01T21:06:18.324Z,1.85
2022-12-01T21:08:45.681Z,1.88
2022-12-01T21:11:49.352Z,1.86
2022-12-01T21:14:21.068Z,1.87
2022-12-01T21:16:49.402Z,1.85
2022-12-01T21:19:26.346Z,1.81
2022-12-01T21:21:53.325Z,1.80
2022-12-01T21:24:22.442Z,1.77
2022-12-01T21:26:58.819Z,1.73
2022-12-01T21:29:52.920Z,1.73
2022-12-01T21:32:33.726Z,1.72
2022-12-01T21:35:23.783Z,1.73
2022-12-01T21:38:04.760Z,1.73
2022-12-01T21:40:32.034Z,1.71
2022-12-01T21:43:01.479Z,1.71
2022-12-01T21:45:31.893Z,1.71
2022-12-01T21:48:06.332Z,1.72
2022-12-01T21:50:33.046Z,1.75
2022-12-01T21:52:59.855Z,1.80
2022-12-01T21:55:26.491Z,1.83
2022-12-01T21:57:54.758Z,1.84
2022-12-01T22:00:33.813Z,1.84
2022-12-01T22:03:22.717Z,1.84
2022-12-01T22:06:21.256Z,1.85
2022-12-01T22:08:43.102Z,1.82
2022-12-01T22:11:16.192Z,1.79
2022-12-01T22:14:08.298Z,1.77
2022-12-01T22:16:46.934Z,1.77
2022-12-01T22:19:16.619Z,1.73
2022-12-01T22:21:48.303Z,1.70
2022-12-01T22:24:22.549Z,1.69
2022-12-01T22:26:52.818Z,1.67
2022-12-01T22:29:33.853Z,1.65
2022-12-01T22:32:31.117Z,1.63
2022-12-01T22:35:14.326Z,1.63
2022-12-01T22:37:45.609Z,1.58
2022-12-01T22:40:27.257Z,1.62
2022-12-01T22:42:53.987Z,1.63
2022-12-01T22:45:24.241Z,1.62
2022-12-01T22:47:56.160Z,1.63
2022-12-01T22:50:32.552Z,1.62
2022-12-01T22:53:06.483Z,1.67
2022-12-01T22:55:34.131Z,1.69
2022-12-01T22:58:35.138Z,1.71
2022-12-01T23:01:07.762Z,1.72
2022-12-01T23:03:34.808Z,1.70
2022-12-01T23:06:01.564Z,1.68
2022-12-01T23:08:28.251Z,1.66
2022-12-01T23:10:54.990Z,1.66
2022-12-01T23:13:24.427Z,1.67
2022-12-01T23:15:55.859Z,1.68
2022-12-01T23:18:23.841Z,1.68
2022-12-01T23:20:57.928Z,1.66
2022-12-01T23:23:30.237Z,1.67
2022-12-01T23:25:57.727Z,1.71
2022-12-01T23:28:25.073Z,1.72
2022-12-01T23:30:56.927Z,1.73
2022-12-01T23:33:27.906Z,1.75
2022-12-01T23:36:02.304Z,1.76
2022-12-01T23:38:38.271Z,1.77
2022-12-01T23:41:07.650Z,1.76
2022-12-01T23:43:43.144Z,1.71
2022-12-01T23:46:16.099Z,1.69
2022-12-01T23:48:46.978Z,1.67
2022-12-01T23:51:45.724Z,1.66
2022-12-01T23:54:26.145Z,1.68
2022-12-01T23:56:56.710Z,1.69
2022-12-01T23:59:24.660Z,1.70
